sensor_id;sensor_type;location;lat;lon;timestamp;P1;durP1;ratioP1;P2;durP2;ratioP2
39994;SDS011;25686;51.908;10.418;2022-07-22T00:00:47;10.55;;;9.48;;
39994;SDS011;25686;51.908;10.418;2022-07-22T00:02:48;11.70;;;9.38;;
39994;SDS011;25686;51.908;10.418;2022-07-22T00:04:49;9.30;;;8.20;;
39994;SDS011;25686;51.908;10.418;2022-07-22T00:06:50;9.68;;;8.68;;
39994;SDS011;25686;51.908;10.418;2022-07-22T00:08:51;8.25;;;7.45;;
39994;SDS011;25686;51.908;10.418;2022-07-22T00:10:52;8.88;;;7.97;;
39994;SDS011;25686;51.908;10.418;2022-07-22T00:12:53;8.80;;;7.90;;
39994;SDS011;25686;51.908;10.418;2022-07-22T00:14:54;9.35;;;7.38;;
39994;SDS011;25686;51.908;10.418;2022-07-22T00:16:55;8.73;;;7.82;;
39994;SDS011;25686;51.908;10.418;2022-07-22T00:18:56;8.23;;;7.25;;
39994;SDS011;25686;51.908;10.418;2022-07-22T00:20:57;8.43;;;7.53;;
39994;SDS011;25686;51.908;10.418;2022-07-22T00:22:58;8.40;;;6.55;;
39994;SDS011;25686;51.908;10.418;2022-07-22T00:24:58;8.73;;;7.20;;
39994;SDS011;25686;51.908;10.418;2022-07-22T00:26:59;6.82;;;6.22;;
39994;SDS011;25686;51.908;10.418;2022-07-22T00:29:00;6.90;;;6.30;;
39994;SDS011;25686;51.908;10.418;2022-07-22T00:31:01;7.53;;;5.97;;
39994;SDS011;25686;51.908;10.418;2022-07-22T00:33:03;6.60;;;5.85;;
39994;SDS011;25686;51.908;10.418;2022-07-22T00:35:04;6.82;;;6.13;;
39994;SDS011;25686;51.908;10.418;2022-07-22T00:37:05;7.50;;;6.00;;
39994;SDS011;25686;51.908;10.418;2022-07-22T00:39:06;7.00;;;6.22;;
39994;SDS011;25686;51.908;10.418;2022-07-22T00:41:07;6.03;;;5.43;;
39994;SDS011;25686;51.908;10.418;2022-07-22T00:43:08;6.20;;;5.60;;
39994;SDS011;25686;51.908;10.418;2022-07-22T00:45:09;9.45;;;5.60;;
39994;SDS011;25686;51.908;10.418;2022-07-22T00:47:11;5.97;;;5.38;;
39994;SDS011;25686;51.908;10.418;2022-07-22T00:49:11;5.97;;;5.38;;
39994;SDS011;25686;51.908;10.418;2022-07-22T00:51:12;5.32;;;4.82;;
39994;SDS011;25686;51.908;10.418;2022-07-22T00:53:13;5.57;;;5.07;;
39994;SDS011;25686;51.908;10.418;2022-07-22T00:55:14;5.75;;;5.22;;
39994;SDS011;25686;51.908;10.418;2022-07-22T00:57:15;5.40;;;4.90;;
39994;SDS011;25686;51.908;10.418;2022-07-22T00:59:16;5.30;;;4.80;;
39994;SDS011;25686;51.908;10.418;2022-07-22T01:01:18;5.22;;;4.72;;
39994;SDS011;25686;51.908;10.418;2022-07-22T01:03:19;5.75;;;4.65;;
39994;SDS011;25686;51.908;10.418;2022-07-22T01:05:20;6.30;;;4.53;;
39994;SDS011;25686;51.908;10.418;2022-07-22T01:07:21;4.68;;;4.03;;
39994;SDS011;25686;51.908;10.418;2022-07-22T01:09:21;5.45;;;4.45;;
39994;SDS011;25686;51.908;10.418;2022-07-22T01:11:22;4.95;;;4.55;;
39994;SDS011;25686;51.908;10.418;2022-07-22T01:13:24;4.75;;;4.35;;
39994;SDS011;25686;51.908;10.418;2022-07-22T01:15:25;4.72;;;4.28;;
39994;SDS011;25686;51.908;10.418;2022-07-22T01:17:26;5.35;;;4.40;;
39994;SDS011;25686;51.908;10.418;2022-07-22T01:19:27;4.50;;;4.10;;
39994;SDS011;25686;51.908;10.418;2022-07-22T01:21:28;4.72;;;4.20;;
39994;SDS011;25686;51.908;10.418;2022-07-22T01:23:29;4.43;;;4.03;;
39994;SDS011;25686;51.908;10.418;2022-07-22T01:25:29;4.75;;;4.10;;
39994;SDS011;25686;51.908;10.418;2022-07-22T01:27:30;4.10;;;3.70;;
39994;SDS011;25686;51.908;10.418;2022-07-22T01:29:31;4.22;;;3.83;;
39994;SDS011;25686;51.908;10.418;2022-07-22T01:31:32;4.53;;;4.13;;
39994;SDS011;25686;51.908;10.418;2022-07-22T01:33:33;7.05;;;3.60;;
39994;SDS011;25686;51.908;10.418;2022-07-22T01:35:34;5.90;;;3.88;;
39994;SDS011;25686;51.908;10.418;2022-07-22T01:37:35;4.85;;;3.80;;
39994;SDS011;25686;51.908;10.418;2022-07-22T01:39:36;5.20;;;3.88;;
39994;SDS011;25686;51.908;10.418;2022-07-22T01:41:37;4.20;;;3.80;;
39994;SDS011;25686;51.908;10.418;2022-07-22T01:43:38;4.53;;;4.13;;
39994;SDS011;25686;51.908;10.418;2022-07-22T01:45:39;4.05;;;3.65;;
39994;SDS011;25686;51.908;10.418;2022-07-22T01:47:40;4.72;;;3.83;;
39994;SDS011;25686;51.908;10.418;2022-07-22T01:49:41;5.22;;;4.15;;
39994;SDS011;25686;51.908;10.418;2022-07-22T01:51:42;5.75;;;3.67;;
39994;SDS011;25686;51.908;10.418;2022-07-22T01:53:43;4.22;;;3.78;;
39994;SDS011;25686;51.908;10.418;2022-07-22T01:55:45;3.92;;;3.53;;
39994;SDS011;25686;51.908;10.418;2022-07-22T01:57:46;4.43;;;3.38;;
39994;SDS011;25686;51.908;10.418;2022-07-22T01:59:47;4.38;;;3.20;;
39994;SDS011;25686;51.908;10.418;2022-07-22T02:01:48;4.85;;;3.10;;
39994;SDS011;25686;51.908;10.418;2022-07-22T02:03:48;3.10;;;2.80;;
39994;SDS011;25686;51.908;10.418;2022-07-22T02:05:49;3.47;;;2.55;;
39994;SDS011;25686;51.908;10.418;2022-07-22T02:07:50;2.75;;;2.55;;
39994;SDS011;25686;51.908;10.418;2022-07-22T02:09:52;3.05;;;2.50;;
39994;SDS011;25686;51.908;10.418;2022-07-22T02:11:53;3.72;;;2.47;;
39994;SDS011;25686;51.908;10.418;2022-07-22T02:13:54;3.13;;;2.63;;
39994;SDS011;25686;51.908;10.418;2022-07-22T02:15:54;4.82;;;2.60;;
39994;SDS011;25686;51.908;10.418;2022-07-22T02:17:55;2.60;;;2.40;;
39994;SDS011;25686;51.908;10.418;2022-07-22T02:19:56;3.33;;;2.50;;
39994;SDS011;25686;51.908;10.418;2022-07-22T02:21:57;2.25;;;2.13;;
39994;SDS011;25686;51.908;10.418;2022-07-22T02:23:58;2.67;;;2.00;;
39994;SDS011;25686;51.908;10.418;2022-07-22T02:25:59;2.92;;;2.55;;
39994;SDS011;25686;51.908;10.418;2022-07-22T02:28:00;2.15;;;1.95;;
39994;SDS011;25686;51.908;10.418;2022-07-22T02:30:01;2.10;;;1.90;;
39994;SDS011;25686;51.908;10.418;2022-07-22T02:32:02;1.80;;;1.70;;
39994;SDS011;25686;51.908;10.418;2022-07-22T02:34:03;3.22;;;1.95;;
39994;SDS011;25686;51.908;10.418;2022-07-22T02:36:04;2.03;;;1.90;;
39994;SDS011;25686;51.908;10.418;2022-07-22T02:38:05;2.28;;;1.95;;
39994;SDS011;25686;51.908;10.418;2022-07-22T02:40:07;3.78;;;2.05;;
39994;SDS011;25686;51.908;10.418;2022-07-22T02:42:08;2.20;;;2.00;;
39994;SDS011;25686;51.908;10.418;2022-07-22T02:44:09;2.67;;;2.30;;
39994;SDS011;25686;51.908;10.418;2022-07-22T02:46:10;2.35;;;2.15;;
39994;SDS011;25686;51.908;10.418;2022-07-22T02:48:11;2.80;;;2.60;;
39994;SDS011;25686;51.908;10.418;2022-07-22T02:50:12;3.00;;;2.72;;
39994;SDS011;25686;51.908;10.418;2022-07-22T02:52:13;3.08;;;2.80;;
39994;SDS011;25686;51.908;10.418;2022-07-22T02:54:14;3.95;;;2.65;;
39994;SDS011;25686;51.908;10.418;2022-07-22T02:56:15;3.17;;;2.80;;
39994;SDS011;25686;51.908;10.418;2022-07-22T02:58:16;3.75;;;3.20;;
39994;SDS011;25686;51.908;10.418;2022-07-22T03:00:17;3.75;;;3.13;;
39994;SDS011;25686;51.908;10.418;2022-07-22T03:02:18;3.72;;;3.30;;
39994;SDS011;25686;51.908;10.418;2022-07-22T03:04:19;3.40;;;3.10;;
39994;SDS011;25686;51.908;10.418;2022-07-22T03:06:20;4.40;;;4.00;;
39994;SDS011;25686;51.908;10.418;2022-07-22T03:08:21;4.20;;;3.80;;
39994;SDS011;25686;51.908;10.418;2022-07-22T03:10:22;4.90;;;3.90;;
39994;SDS011;25686;51.908;10.418;2022-07-22T03:12:23;4.70;;;4.28;;
39994;SDS011;25686;51.908;10.418;2022-07-22T03:14:24;5.10;;;4.13;;
39994;SDS011;25686;51.908;10.418;2022-07-22T03:16:25;7.32;;;4.72;;
39994;SDS011;25686;51.908;10.418;2022-07-22T03:18:26;6.50;;;4.60;;
39994;SDS011;25686;51.908;10.418;2022-07-22T03:20:26;7.47;;;4.82;;
39994;SDS011;25686;51.908;10.418;2022-07-22T03:22:27;5.75;;;4.70;;
39994;SDS011;25686;51.908;10.418;2022-07-22T03:24:28;5.18;;;4.20;;
39994;SDS011;25686;51.908;10.418;2022-07-22T03:26:29;5.93;;;5.00;;
39994;SDS011;25686;51.908;10.418;2022-07-22T03:28:30;7.75;;;4.55;;
39994;SDS011;25686;51.908;10.418;2022-07-22T03:30:31;5.13;;;4.57;;
39994;SDS011;25686;51.908;10.418;2022-07-22T03:32:32;6.22;;;4.72;;
39994;SDS011;25686;51.908;10.418;2022-07-22T03:34:33;6.70;;;4.70;;
39994;SDS011;25686;51.908;10.418;2022-07-22T03:36:34;5.22;;;4.20;;
39994;SDS011;25686;51.908;10.418;2022-07-22T03:38:35;6.95;;;4.28;;
39994;SDS011;25686;51.908;10.418;2022-07-22T03:40:36;5.47;;;4.40;;
39994;SDS011;25686;51.908;10.418;2022-07-22T03:42:37;6.22;;;4.55;;
39994;SDS011;25686;51.908;10.418;2022-07-22T03:44:38;4.18;;;3.78;;
39994;SDS011;25686;51.908;10.418;2022-07-22T03:46:39;5.50;;;3.92;;
39994;SDS011;25686;51.908;10.418;2022-07-22T03:48:40;5.72;;;3.70;;
39994;SDS011;25686;51.908;10.418;2022-07-22T03:50:41;3.78;;;3.17;;
39994;SDS011;25686;51.908;10.418;2022-07-22T03:52:42;4.07;;;3.03;;
39994;SDS011;25686;51.908;10.418;2022-07-22T03:54:43;3.05;;;2.63;;
39994;SDS011;25686;51.908;10.418;2022-07-22T03:56:44;4.35;;;2.92;;
39994;SDS011;25686;51.908;10.418;2022-07-22T03:58:45;2.63;;;2.42;;
39994;SDS011;25686;51.908;10.418;2022-07-22T04:00:46;2.17;;;1.98;;
39994;SDS011;25686;51.908;10.418;2022-07-22T04:02:47;1.90;;;1.80;;
39994;SDS011;25686;51.908;10.418;2022-07-22T04:04:48;1.60;;;1.50;;
39994;SDS011;25686;51.908;10.418;2022-07-22T04:06:49;1.63;;;1.52;;
39994;SDS011;25686;51.908;10.418;2022-07-22T04:08:51;2.03;;;1.50;;
39994;SDS011;25686;51.908;10.418;2022-07-22T04:10:52;1.40;;;1.30;;
39994;SDS011;25686;51.908;10.418;2022-07-22T04:12:53;0.80;;;0.80;;
39994;SDS011;25686;51.908;10.418;2022-07-22T04:14:54;0.90;;;0.90;;
39994;SDS011;25686;51.908;10.418;2022-07-22T04:16:55;0.70;;;0.70;;
39994;SDS011;25686;51.908;10.418;2022-07-22T04:18:56;0.73;;;0.73;;
39994;SDS011;25686;51.908;10.418;2022-07-22T04:20:56;0.60;;;0.60;;
39994;SDS011;25686;51.908;10.418;2022-07-22T04:22:57;1.08;;;0.52;;
39994;SDS011;25686;51.908;10.418;2022-07-22T04:24:58;0.60;;;0.60;;
39994;SDS011;25686;51.908;10.418;2022-07-22T04:26:59;0.40;;;0.40;;
39994;SDS011;25686;51.908;10.418;2022-07-22T04:29:00;0.50;;;0.50;;
39994;SDS011;25686;51.908;10.418;2022-07-22T04:31:02;0.50;;;0.50;;
39994;SDS011;25686;51.908;10.418;2022-07-22T04:33:03;0.52;;;0.32;;
39994;SDS011;25686;51.908;10.418;2022-07-22T04:35:04;0.50;;;0.40;;
39994;SDS011;25686;51.908;10.418;2022-07-22T04:37:05;0.35;;;0.35;;
39994;SDS011;25686;51.908;10.418;2022-07-22T04:39:06;0.40;;;0.40;;
39994;SDS011;25686;51.908;10.418;2022-07-22T04:41:07;1.38;;;0.35;;
39994;SDS011;25686;51.908;10.418;2022-07-22T04:43:08;0.38;;;0.38;;
39994;SDS011;25686;51.908;10.418;2022-07-22T04:45:09;0.73;;;0.38;;
39994;SDS011;25686;51.908;10.418;2022-07-22T04:47:10;0.30;;;0.30;;
39994;SDS011;25686;51.908;10.418;2022-07-22T04:49:11;0.30;;;0.30;;
39994;SDS011;25686;51.908;10.418;2022-07-22T04:51:12;0.50;;;0.50;;
39994;SDS011;25686;51.908;10.418;2022-07-22T04:53:13;0.50;;;0.50;;
39994;SDS011;25686;51.908;10.418;2022-07-22T04:55:14;0.60;;;0.60;;
39994;SDS011;25686;51.908;10.418;2022-07-22T04:57:15;0.73;;;0.73;;
39994;SDS011;25686;51.908;10.418;2022-07-22T04:59:16;1.23;;;1.10;;
39994;SDS011;25686;51.908;10.418;2022-07-22T05:01:17;3.90;;;1.92;;
39994;SDS011;25686;51.908;10.418;2022-07-22T05:03:18;4.80;;;2.60;;
39994;SDS011;25686;51.908;10.418;2022-07-22T05:05:19;3.95;;;2.88;;
39994;SDS011;25686;51.908;10.418;2022-07-22T05:07:20;3.75;;;3.35;;
39994;SDS011;25686;51.908;10.418;2022-07-22T05:09:21;5.40;;;4.07;;
39994;SDS011;25686;51.908;10.418;2022-07-22T05:11:22;6.20;;;4.47;;
39994;SDS011;25686;51.908;10.418;2022-07-22T05:13:23;6.40;;;5.32;;
39994;SDS011;25686;51.908;10.418;2022-07-22T05:15:23;7.78;;;4.63;;
39994;SDS011;25686;51.908;10.418;2022-07-22T05:17:24;6.15;;;5.22;;
39994;SDS011;25686;51.908;10.418;2022-07-22T05:19:25;6.63;;;5.50;;
39994;SDS011;25686;51.908;10.418;2022-07-22T05:21:26;6.95;;;5.28;;
39994;SDS011;25686;51.908;10.418;2022-07-22T05:23:27;7.90;;;6.15;;
39994;SDS011;25686;51.908;10.418;2022-07-22T05:25:28;8.88;;;6.40;;
39994;SDS011;25686;51.908;10.418;2022-07-22T05:27:29;8.20;;;5.80;;
39994;SDS011;25686;51.908;10.418;2022-07-22T05:29:30;8.98;;;5.60;;
39994;SDS011;25686;51.908;10.418;2022-07-22T05:31:31;7.85;;;5.20;;
39994;SDS011;25686;51.908;10.418;2022-07-22T05:33:32;8.63;;;5.30;;
39994;SDS011;25686;51.908;10.418;2022-07-22T05:35:33;6.55;;;5.15;;
39994;SDS011;25686;51.908;10.418;2022-07-22T05:37:34;5.85;;;4.38;;
39994;SDS011;25686;51.908;10.418;2022-07-22T05:39:35;6.22;;;4.50;;
39994;SDS011;25686;51.908;10.418;2022-07-22T05:41:36;6.55;;;4.57;;
39994;SDS011;25686;51.908;10.418;2022-07-22T05:43:38;7.90;;;4.85;;
39994;SDS011;25686;51.908;10.418;2022-07-22T05:45:39;6.25;;;4.45;;
39994;SDS011;25686;51.908;10.418;2022-07-22T05:47:40;5.25;;;4.18;;
39994;SDS011;25686;51.908;10.418;2022-07-22T05:49:41;6.28;;;4.07;;
39994;SDS011;25686;51.908;10.418;2022-07-22T05:51:42;4.07;;;3.38;;
39994;SDS011;25686;51.908;10.418;2022-07-22T05:53:43;4.20;;;3.47;;
39994;SDS011;25686;51.908;10.418;2022-07-22T05:55:44;5.22;;;3.03;;
39994;SDS011;25686;51.908;10.418;2022-07-22T05:57:45;3.53;;;2.90;;
39994;SDS011;25686;51.908;10.418;2022-07-22T05:59:46;5.30;;;3.03;;
39994;SDS011;25686;51.908;10.418;2022-07-22T06:01:46;4.80;;;3.35;;
39994;SDS011;25686;51.908;10.418;2022-07-22T06:03:48;3.53;;;2.88;;
39994;SDS011;25686;51.908;10.418;2022-07-22T06:05:49;3.15;;;2.85;;
39994;SDS011;25686;51.908;10.418;2022-07-22T06:07:49;3.35;;;3.00;;
39994;SDS011;25686;51.908;10.418;2022-07-22T06:09:50;4.68;;;3.67;;
39994;SDS011;25686;51.908;10.418;2022-07-22T06:11:52;4.57;;;3.47;;
39994;SDS011;25686;51.908;10.418;2022-07-22T06:13:53;6.13;;;3.38;;
39994;SDS011;25686;51.908;10.418;2022-07-22T06:15:54;3.28;;;2.95;;
39994;SDS011;25686;51.908;10.418;2022-07-22T06:17:55;2.60;;;2.40;;
39994;SDS011;25686;51.908;10.418;2022-07-22T06:19:55;3.72;;;2.80;;
39994;SDS011;25686;51.908;10.418;2022-07-22T06:21:56;3.00;;;2.50;;
39994;SDS011;25686;51.908;10.418;2022-07-22T06:23:57;2.78;;;2.58;;
39994;SDS011;25686;51.908;10.418;2022-07-22T06:25:58;4.43;;;2.38;;
39994;SDS011;25686;51.908;10.418;2022-07-22T06:27:59;3.05;;;2.20;;
39994;SDS011;25686;51.908;10.418;2022-07-22T06:30:00;2.83;;;2.47;;
39994;SDS011;25686;51.908;10.418;2022-07-22T06:32:01;2.70;;;2.50;;
39994;SDS011;25686;51.908;10.418;2022-07-22T06:34:02;2.80;;;2.40;;
39994;SDS011;25686;51.908;10.418;2022-07-22T06:36:05;2.22;;;2.03;;
39994;SDS011;25686;51.908;10.418;2022-07-22T06:38:06;3.55;;;2.00;;
39994;SDS011;25686;51.908;10.418;2022-07-22T06:40:07;3.15;;;1.90;;
39994;SDS011;25686;51.908;10.418;2022-07-22T06:42:08;3.90;;;2.00;;
39994;SDS011;25686;51.908;10.418;2022-07-22T06:44:09;1.95;;;1.85;;
39994;SDS011;25686;51.908;10.418;2022-07-22T06:46:10;2.85;;;1.90;;
39994;SDS011;25686;51.908;10.418;2022-07-22T06:48:11;2.83;;;2.00;;
39994;SDS011;25686;51.908;10.418;2022-07-22T06:50:12;2.13;;;1.92;;
39994;SDS011;25686;51.908;10.418;2022-07-22T06:52:13;2.47;;;2.28;;
39994;SDS011;25686;51.908;10.418;2022-07-22T06:54:14;2.30;;;2.00;;
39994;SDS011;25686;51.908;10.418;2022-07-22T06:56:15;2.13;;;1.67;;
39994;SDS011;25686;51.908;10.418;2022-07-22T06:58:16;3.72;;;2.00;;
39994;SDS011;25686;51.908;10.418;2022-07-22T07:00:17;2.38;;;2.03;;
39994;SDS011;25686;51.908;10.418;2022-07-22T07:02:18;1.73;;;1.63;;
39994;SDS011;25686;51.908;10.418;2022-07-22T07:04:19;1.95;;;1.77;;
39994;SDS011;25686;51.908;10.418;2022-07-22T07:06:20;3.20;;;2.90;;
39994;SDS011;25686;51.908;10.418;2022-07-22T07:08:21;3.40;;;2.70;;
39994;SDS011;25686;51.908;10.418;2022-07-22T07:10:22;2.88;;;2.67;;
39994;SDS011;25686;51.908;10.418;2022-07-22T07:12:23;3.70;;;3.10;;
39994;SDS011;25686;51.908;10.418;2022-07-22T07:14:24;3.72;;;3.30;;
39994;SDS011;25686;51.908;10.418;2022-07-22T07:16:25;3.15;;;2.70;;
39994;SDS011;25686;51.908;10.418;2022-07-22T07:18:26;4.53;;;2.90;;
39994;SDS011;25686;51.908;10.418;2022-07-22T07:20:27;2.65;;;2.25;;
39994;SDS011;25686;51.908;10.418;2022-07-22T07:22:28;2.40;;;2.20;;
39994;SDS011;25686;51.908;10.418;2022-07-22T07:24:29;4.78;;;2.53;;
39994;SDS011;25686;51.908;10.418;2022-07-22T07:26:30;3.08;;;2.00;;
39994;SDS011;25686;51.908;10.418;2022-07-22T07:28:31;2.97;;;2.70;;
39994;SDS011;25686;51.908;10.418;2022-07-22T07:30:32;3.28;;;2.90;;
39994;SDS011;25686;51.908;10.418;2022-07-22T07:32:32;5.45;;;2.70;;
39994;SDS011;25686;51.908;10.418;2022-07-22T07:34:33;2.95;;;2.72;;
39994;SDS011;25686;51.908;10.418;2022-07-22T07:36:34;3.05;;;2.72;;
39994;SDS011;25686;51.908;10.418;2022-07-22T07:38:35;3.08;;;2.72;;
39994;SDS011;25686;51.908;10.418;2022-07-22T07:40:36;5.50;;;2.50;;
39994;SDS011;25686;51.908;10.418;2022-07-22T07:42:37;6.03;;;2.80;;
39994;SDS011;25686;51.908;10.418;2022-07-22T07:44:38;3.28;;;3.00;;
39994;SDS011;25686;51.908;10.418;2022-07-22T07:46:39;4.15;;;2.90;;
39994;SDS011;25686;51.908;10.418;2022-07-22T07:48:40;3.38;;;1.80;;
39994;SDS011;25686;51.908;10.418;2022-07-22T07:50:41;2.83;;;2.60;;
39994;SDS011;25686;51.908;10.418;2022-07-22T07:52:43;4.53;;;3.08;;
39994;SDS011;25686;51.908;10.418;2022-07-22T07:54:47;3.58;;;2.80;;
39994;SDS011;25686;51.908;10.418;2022-07-22T07:56:48;3.30;;;3.00;;
39994;SDS011;25686;51.908;10.418;2022-07-22T07:58:49;3.17;;;2.88;;
39994;SDS011;25686;51.908;10.418;2022-07-22T08:00:50;2.92;;;2.72;;
39994;SDS011;25686;51.908;10.418;2022-07-22T08:02:51;2.30;;;2.10;;
39994;SDS011;25686;51.908;10.418;2022-07-22T08:04:51;2.97;;;2.67;;
39994;SDS011;25686;51.908;10.418;2022-07-22T08:06:52;2.40;;;2.20;;
39994;SDS011;25686;51.908;10.418;2022-07-22T08:08:54;3.55;;;1.92;;
39994;SDS011;25686;51.908;10.418;2022-07-22T08:10:54;4.47;;;1.90;;
39994;SDS011;25686;51.908;10.418;2022-07-22T08:12:56;2.40;;;2.08;;
39994;SDS011;25686;51.908;10.418;2022-07-22T08:14:58;4.78;;;1.77;;
39994;SDS011;25686;51.908;10.418;2022-07-22T08:16:59;3.00;;;1.70;;
39994;SDS011;25686;51.908;10.418;2022-07-22T08:18:59;2.38;;;1.90;;
39994;SDS011;25686;51.908;10.418;2022-07-22T08:21:01;1.90;;;1.58;;
39994;SDS011;25686;51.908;10.418;2022-07-22T08:23:02;3.15;;;1.42;;
39994;SDS011;25686;51.908;10.418;2022-07-22T08:25:04;1.90;;;1.70;;
39994;SDS011;25686;51.908;10.418;2022-07-22T08:27:05;0.90;;;0.90;;
39994;SDS011;25686;51.908;10.418;2022-07-22T08:29:06;2.15;;;1.10;;
39994;SDS011;25686;51.908;10.418;2022-07-22T08:31:09;2.13;;;0.93;;
39994;SDS011;25686;51.908;10.418;2022-07-22T08:33:10;1.65;;;1.00;;
39994;SDS011;25686;51.908;10.418;2022-07-22T08:35:11;1.40;;;0.85;;
39994;SDS011;25686;51.908;10.418;2022-07-22T08:37:12;1.10;;;1.00;;
39994;SDS011;25686;51.908;10.418;2022-07-22T08:39:13;2.38;;;0.95;;
39994;SDS011;25686;51.908;10.418;2022-07-22T08:41:14;0.95;;;0.80;;
39994;SDS011;25686;51.908;10.418;2022-07-22T08:43:16;0.95;;;0.80;;
39994;SDS011;25686;51.908;10.418;2022-07-22T08:45:17;1.05;;;0.60;;
39994;SDS011;25686;51.908;10.418;2022-07-22T08:47:22;2.90;;;0.50;;
39994;SDS011;25686;51.908;10.418;2022-07-22T08:49:23;1.58;;;0.50;;
39994;SDS011;25686;51.908;10.418;2022-07-22T08:51:24;1.80;;;0.77;;
39994;SDS011;25686;51.908;10.418;2022-07-22T08:53:25;0.50;;;0.50;;
39994;SDS011;25686;51.908;10.418;2022-07-22T08:55:26;0.60;;;0.60;;
39994;SDS011;25686;51.908;10.418;2022-07-22T08:57:27;1.65;;;0.55;;
39994;SDS011;25686;51.908;10.418;2022-07-22T08:59:28;0.65;;;0.40;;
39994;SDS011;25686;51.908;10.418;2022-07-22T09:01:29;0.88;;;0.60;;
39994;SDS011;25686;51.908;10.418;2022-07-22T09:03:30;0.60;;;0.50;;
39994;SDS011;25686;51.908;10.418;2022-07-22T09:05:32;0.75;;;0.60;;
39994;SDS011;25686;51.908;10.418;2022-07-22T09:07:34;0.80;;;0.60;;
39994;SDS011;25686;51.908;10.418;2022-07-22T09:09:36;1.20;;;0.50;;
39994;SDS011;25686;51.908;10.418;2022-07-22T09:11:39;1.85;;;0.63;;
39994;SDS011;25686;51.908;10.418;2022-07-22T09:13:42;2.13;;;0.80;;
39994;SDS011;25686;51.908;10.418;2022-07-22T09:15:48;1.45;;;0.80;;
39994;SDS011;25686;51.908;10.418;2022-07-22T09:17:49;2.90;;;0.85;;
39994;SDS011;25686;51.908;10.418;2022-07-22T09:19:50;2.13;;;1.10;;
39994;SDS011;25686;51.908;10.418;2022-07-22T09:21:51;1.55;;;1.00;;
39994;SDS011;25686;51.908;10.418;2022-07-22T09:23:52;3.08;;;1.00;;
39994;SDS011;25686;51.908;10.418;2022-07-22T09:25:53;2.40;;;1.13;;
39994;SDS011;25686;51.908;10.418;2022-07-22T09:30:07;1.75;;;1.42;;
39994;SDS011;25686;51.908;10.418;2022-07-22T09:32:12;1.63;;;1.50;;
39994;SDS011;25686;51.908;10.418;2022-07-22T09:34:12;1.98;;;1.70;;
39994;SDS011;25686;51.908;10.418;2022-07-22T09:36:25;1.80;;;1.50;;
39994;SDS011;25686;51.908;10.418;2022-07-22T09:38:27;1.80;;;1.70;;
39994;SDS011;25686;51.908;10.418;2022-07-22T09:40:33;1.77;;;1.52;;
39994;SDS011;25686;51.908;10.418;2022-07-22T09:42:43;2.28;;;1.45;;
39994;SDS011;25686;51.908;10.418;2022-07-22T09:44:45;1.75;;;1.60;;
39994;SDS011;25686;51.908;10.418;2022-07-22T09:46:47;1.80;;;1.70;;
39994;SDS011;25686;51.908;10.418;2022-07-22T09:48:47;2.47;;;1.70;;
39994;SDS011;25686;51.908;10.418;2022-07-22T09:50:49;1.67;;;1.52;;
39994;SDS011;25686;51.908;10.418;2022-07-22T09:52:51;1.83;;;1.73;;
39994;SDS011;25686;51.908;10.418;2022-07-22T09:54:52;1.75;;;1.65;;
39994;SDS011;25686;51.908;10.418;2022-07-22T09:56:53;2.70;;;1.70;;
39994;SDS011;25686;51.908;10.418;2022-07-22T09:58:54;2.85;;;1.70;;
39994;SDS011;25686;51.908;10.418;2022-07-22T10:00:57;2.08;;;1.85;;
39994;SDS011;25686;51.908;10.418;2022-07-22T10:02:59;2.60;;;2.00;;
39994;SDS011;25686;51.908;10.418;2022-07-22T10:05:00;2.47;;;1.90;;
39994;SDS011;25686;51.908;10.418;2022-07-22T10:07:02;1.70;;;1.60;;
39994;SDS011;25686;51.908;10.418;2022-07-22T10:09:03;4.60;;;2.40;;
39994;SDS011;25686;51.908;10.418;2022-07-22T10:11:06;3.17;;;2.88;;
39994;SDS011;25686;51.908;10.418;2022-07-22T10:13:07;4.22;;;2.30;;
39994;SDS011;25686;51.908;10.418;2022-07-22T10:15:09;3.53;;;2.20;;
39994;SDS011;25686;51.908;10.418;2022-07-22T10:17:10;2.35;;;2.17;;
39994;SDS011;25686;51.908;10.418;2022-07-22T10:19:12;2.03;;;1.80;;
39994;SDS011;25686;51.908;10.418;2022-07-22T10:21:14;4.68;;;2.08;;
39994;SDS011;25686;51.908;10.418;2022-07-22T10:23:15;1.63;;;1.52;;
39994;SDS011;25686;51.908;10.418;2022-07-22T10:25:16;1.45;;;1.30;;
39994;SDS011;25686;51.908;10.418;2022-07-22T10:27:34;2.58;;;1.63;;
39994;SDS011;25686;51.908;10.418;2022-07-22T10:29:40;1.77;;;1.67;;
39994;SDS011;25686;51.908;10.418;2022-07-22T10:31:46;2.92;;;1.90;;
39994;SDS011;25686;51.908;10.418;2022-07-22T10:33:48;2.03;;;1.65;;
39994;SDS011;25686;51.908;10.418;2022-07-22T10:35:53;1.90;;;1.80;;
39994;SDS011;25686;51.908;10.418;2022-07-22T10:37:55;1.98;;;1.88;;
39994;SDS011;25686;51.908;10.418;2022-07-22T10:42:13;2.10;;;2.00;;
39994;SDS011;25686;51.908;10.418;2022-07-22T10:44:15;2.00;;;1.80;;
39994;SDS011;25686;51.908;10.418;2022-07-22T10:46:55;2.15;;;1.88;;
39994;SDS011;25686;51.908;10.418;2022-07-22T10:48:58;2.38;;;2.17;;
39994;SDS011;25686;51.908;10.418;2022-07-22T10:53:14;2.58;;;2.28;;
39994;SDS011;25686;51.908;10.418;2022-07-22T10:55:16;2.85;;;2.50;;
39994;SDS011;25686;51.908;10.418;2022-07-22T10:57:30;2.97;;;2.72;;
39994;SDS011;25686;51.908;10.418;2022-07-22T10:59:31;2.88;;;2.50;;
39994;SDS011;25686;51.908;10.418;2022-07-22T11:01:32;3.22;;;2.65;;
39994;SDS011;25686;51.908;10.418;2022-07-22T11:03:34;3.80;;;3.05;;
39994;SDS011;25686;51.908;10.418;2022-07-22T11:05:35;2.70;;;2.50;;
39994;SDS011;25686;51.908;10.418;2022-07-22T11:07:43;4.80;;;2.67;;
39994;SDS011;25686;51.908;10.418;2022-07-22T11:09:44;3.95;;;3.10;;
39994;SDS011;25686;51.908;10.418;2022-07-22T11:11:46;2.88;;;2.63;;
39994;SDS011;25686;51.908;10.418;2022-07-22T11:13:49;3.00;;;2.70;;
39994;SDS011;25686;51.908;10.418;2022-07-22T11:15:50;3.83;;;3.17;;
39994;SDS011;25686;51.908;10.418;2022-07-22T11:17:51;3.33;;;2.65;;
39994;SDS011;25686;51.908;10.418;2022-07-22T11:19:56;3.20;;;2.90;;
39994;SDS011;25686;51.908;10.418;2022-07-22T11:22:01;4.47;;;2.53;;
39994;SDS011;25686;51.908;10.418;2022-07-22T11:24:04;3.28;;;2.65;;
39994;SDS011;25686;51.908;10.418;2022-07-22T11:26:06;2.75;;;2.38;;
39994;SDS011;25686;51.908;10.418;2022-07-22T11:28:08;3.72;;;2.70;;
39994;SDS011;25686;51.908;10.418;2022-07-22T11:30:09;3.20;;;2.90;;
39994;SDS011;25686;51.908;10.418;2022-07-22T11:32:11;2.65;;;2.40;;
39994;SDS011;25686;51.908;10.418;2022-07-22T11:34:13;3.22;;;2.50;;
39994;SDS011;25686;51.908;10.418;2022-07-22T11:36:15;2.97;;;2.58;;
39994;SDS011;25686;51.908;10.418;2022-07-22T11:38:16;2.70;;;2.50;;
39994;SDS011;25686;51.908;10.418;2022-07-22T11:40:17;3.25;;;2.78;;
39994;SDS011;25686;51.908;10.418;2022-07-22T11:42:18;2.75;;;2.55;;
39994;SDS011;25686;51.908;10.418;2022-07-22T11:44:19;3.25;;;2.50;;
39994;SDS011;25686;51.908;10.418;2022-07-22T11:46:21;3.78;;;2.50;;
39994;SDS011;25686;51.908;10.418;2022-07-22T11:48:23;5.10;;;2.83;;
39994;SDS011;25686;51.908;10.418;2022-07-22T11:50:31;4.20;;;3.08;;
39994;SDS011;25686;51.908;10.418;2022-07-22T11:52:32;3.53;;;2.53;;
39994;SDS011;25686;51.908;10.418;2022-07-22T11:54:33;3.00;;;2.70;;
39994;SDS011;25686;51.908;10.418;2022-07-22T11:56:34;3.17;;;2.63;;
39994;SDS011;25686;51.908;10.418;2022-07-22T11:58:36;3.35;;;2.70;;
39994;SDS011;25686;51.908;10.418;2022-07-22T12:00:38;3.38;;;2.80;;
39994;SDS011;25686;51.908;10.418;2022-07-22T12:02:39;2.80;;;2.60;;
39994;SDS011;25686;51.908;10.418;2022-07-22T12:04:40;4.35;;;3.38;;
39994;SDS011;25686;51.908;10.418;2022-07-22T12:06:41;4.93;;;3.17;;